ADDS METAR Data INFO
IDs: Format: Raw Decoded Include TAF

Data at: 2253 UTC 22 Jun 2018

KHDE 222235Z AUTO 06003KT 10SM BKN090 23/16 A2985 RMK AO2 LTG DSNT SW THRU N T02300155
KHDE 222215Z AUTO 00000KT 10SM SCT090 SCT110 24/16 A2986 RMK AO2 LTG DSNT W T02360158
KHDE 222155Z AUTO 07007KT 10SM SCT090 BKN110 24/16 A2985 RMK AO2 LTG DSNT SW AND W T02380159
KHDE 222135Z AUTO 08004KT 10SM SCT036 BKN090 BKN110 24/16 A2986 RMK AO2 T02370159
KHDE 222115Z AUTO 07006KT 10SM SCT036 SCT090 23/15 A2987 RMK AO2 T02340150
KHDE 222055Z AUTO 14004KT 10SM CLR 24/15 A2988 RMK AO2 T02350152
KHDE 222035Z AUTO 09008KT 10SM CLR 24/16 A2987 RMK AO2 T02360161
KHDE 222015Z AUTO 08004KT 10SM CLR 23/15 A2988 RMK AO2 T02300151
KHDE 221955Z AUTO 06004KT 10SM CLR 23/16 A2989 RMK AO2 T02290156
KHDE 221935Z AUTO 06009KT 10SM CLR 23/16 A2990 RMK AO2 T02280160
KHDE 221915Z AUTO 05004KT 10SM SCT030 22/16 A2992 RMK AO2 T02230155
KHDE 221855Z AUTO 13006KT 10SM SCT028 22/16 A2992 RMK AO2 T02220156
KHDE 221835Z AUTO 09007KT 10SM SCT028 22/16 A2993 RMK AO2 T02220155
KHDE 221815Z AUTO 08005KT 10SM CLR 22/15 A2993 RMK AO2 T02150151
KHDE 221755Z AUTO 07005KT 10SM SCT028 22/15 A2993 RMK AO2 T02160150 10216 20129
KHDE 221735Z AUTO 09006KT 10SM SCT028 21/15 A2994 RMK AO2 T02120147
KHDE 221715Z AUTO 00000KT 10SM CLR 21/14 A2995 RMK AO2 T02060142
KHDE 221655Z AUTO 09005KT 10SM CLR 21/14 A2996 RMK AO2 T02080141
KHDE 221635Z AUTO 07007KT 10SM CLR 21/14 A2996 RMK AO2 T02070140
KHDE 221615Z AUTO 04007KT 10SM CLR 20/14 A2996 RMK AO2 T02010136
KHDE 221555Z AUTO 04005KT 10SM CLR 20/14 A2996 RMK AO2 T01980137
KHDE 221535Z AUTO 04005KT 10SM CLR 19/14 A2997 RMK AO2 T01920138
KHDE 221515Z AUTO 07005KT 10SM CLR 19/14 A2998 RMK AO2 T01900141
KHDE 221455Z AUTO 04006KT 10SM CLR 18/14 A2998 RMK AO2 T01820138
KHDE 221435Z AUTO 03005KT 10SM CLR 18/14 A2998 RMK AO2 T01780137
KHDE 221415Z AUTO 03006KT 10SM CLR 17/14 A2997 RMK AO2 T01710142
KHDE 221355Z AUTO 03004KT 10SM CLR 16/14 A2997 RMK AO2 T01640141
KHDE 221335Z AUTO 02004KT 10SM CLR 16/14 A2997 RMK AO2 T01580139
KHDE 221315Z AUTO 01003KT 10SM CLR 15/14 A2997 RMK AO2 T01520137
KHDE 221255Z AUTO 01004KT 10SM CLR 15/14 A2997 RMK AO2 T01470136
KHDE 221235Z AUTO 33003KT 10SM CLR 14/13 A2997 RMK AO2 T01390131
KHDE 221215Z AUTO 35003KT 10SM CLR 13/13 A2996 RMK AO2 T01320126
KHDE 221155Z AUTO 00000KT 10SM CLR 13/13 A2996 RMK AO2 T01280125 10144 20121
KHDE 221135Z AUTO 36005KT 10SM CLR 12/12 A2995 RMK AO2 T01220120
KHDE 221115Z AUTO 35005KT 10SM CLR 12/12 A2995 RMK AO2 T01220120
KHDE 221055Z AUTO 35005KT 10SM CLR 13/12 A2996 RMK AO2 T01260124
KHDE 221035Z AUTO 35004KT 10SM CLR 13/13 A2995 RMK AO2 T01260125
KHDE 221015Z AUTO 33003KT 10SM CLR 13/13 A2995 RMK AO2 T01250125
KHDE 220955Z AUTO 34004KT 10SM CLR 12/12 A2996 RMK AO2 T01220122
KHDE 220935Z AUTO 30004KT 10SM CLR 13/13 A2996 RMK AO2 T01260125
KHDE 220915Z AUTO 34004KT 10SM CLR 13/13 A2995 RMK AO2 T01300130
KHDE 220855Z AUTO 32004KT 10SM CLR 13/13 A2996 RMK AO2 T01300128
KHDE 220835Z AUTO 36004KT 10SM CLR 14/13 A2996 RMK AO2 T01360132
KHDE 220815Z AUTO 34005KT 10SM CLR 14/14 A2997 RMK AO2 T01370135
KHDE 220755Z AUTO 36006KT 10SM CLR 14/14 A2996 RMK AO2 T01370135
KHDE 220735Z AUTO 34006KT 10SM CLR 14/14 A2998 RMK AO2 T01370136
KHDE 220715Z AUTO 32004KT 10SM CLR 14/13 A2999 RMK AO2 T01360133
KHDE 220655Z AUTO 33007KT 10SM CLR 14/14 A2999 RMK AO2 T01400136
KHDE 220635Z AUTO 32004KT 10SM CLR 14/14 A2998 RMK AO2 T01400138
KHDE 220615Z AUTO 36005KT 10SM CLR 14/14 A2997 RMK AO2 T01370135
KHDE 220555Z AUTO 34004KT 10SM CLR 14/14 A2998 RMK AO2 T01430140 10241 20143 402510140
KHDE 220535Z AUTO 34003KT 10SM CLR 15/14 A2999 RMK AO2 T01450140
KHDE 220515Z AUTO 01005KT 10SM CLR 15/14 A2998 RMK AO2 T01470140
KHDE 220455Z AUTO 36005KT 10SM CLR 16/14 A3000 RMK AO2 T01550143
KHDE 220435Z AUTO 35005KT 10SM CLR 15/15 A3001 RMK AO2 T01510146
KHDE 220415Z AUTO 01006KT 10SM CLR 16/15 A3000 RMK AO2 T01550145
KHDE 220355Z AUTO 02003KT 10SM CLR 15/15 A3000 RMK AO2 T01520145
KHDE 220335Z AUTO 00000KT 10SM CLR 16/15 A2999 RMK AO2 T01630149
KHDE 220315Z AUTO 04003KT 10SM CLR 17/15 A2999 RMK AO2 T01660154
KHDE 220255Z AUTO 05004KT 10SM CLR 17/16 A2998 RMK AO2 T01690158
KHDE 220235Z AUTO 04006KT 10SM CLR 18/16 A2996 RMK AO2 T01750158
KHDE 220215Z AUTO 04007KT 10SM CLR 19/16 A2996 RMK AO2 T01850156
KHDE 220155Z AUTO 04008KT 10SM CLR 20/16 A2995 RMK AO2 T01950156
KHDE 220135Z AUTO 05007KT 10SM CLR 21/16 A2995 RMK AO2 T02060161
KHDE 220115Z AUTO 04011KT 10SM CLR 22/16 A2995 RMK AO2 T02150155
KHDE 220055Z AUTO 02010KT 10SM CLR 22/13 A2994 RMK AO2 T02230133
KHDE 220035Z AUTO 02014KT 10SM CLR 23/14 A2994 RMK AO2 T02300138
KHDE 220015Z AUTO 02011G19KT 10SM CLR 23/14 A2994 RMK AO2 T02320143
KHDE 212355Z AUTO 01010G15KT 10SM SCT070 24/13 A2994 RMK AO2 T02410132 10251 20232
KHDE 212335Z AUTO 35012G16KT 10SM SCT070 25/13 A2994 RMK AO2 T02450128
KHDE 212315Z AUTO 35011G18KT 10SM SCT070 25/12 A2994 RMK AO2 T02450123
KHDE 212255Z AUTO 35011G18KT 10SM SCT070 25/13 A2994 RMK AO2 T02470128
KHDE 212235Z AUTO 36013G17KT 10SM OVC070 24/13 A2994 RMK AO2 T02370129
KHDE 212215Z AUTO 36011G19KT 10SM SCT060 OVC070 24/13 A2994 RMK AO2 T02430134
KHDE 212155Z AUTO 35014G17KT 10SM BKN060 25/13 A2994 RMK AO2 T02490127
KHDE 212135Z AUTO 34014G19KT 10SM BKN060 25/12 A2994 RMK AO2 T02490119
KHDE 212115Z AUTO 34016G23KT 10SM BKN060 25/12 A2994 RMK AO2 T02460121
KHDE 212055Z AUTO 36014G22KT 10SM SCT060 24/12 A2995 RMK AO2 T02440118
KHDE 212035Z AUTO 35016G22KT 10SM SCT060 25/13 A2994 RMK AO2 T02450127
KHDE 212015Z AUTO 34017G23KT 10SM BKN060 23/13 A2995 RMK AO2 T02340129
KHDE 211955Z AUTO 35014G21KT 10SM BKN060 25/14 A2996 RMK AO2 T02450135
KHDE 211935Z AUTO 34015G21KT 10SM BKN050 23/13 A2996 RMK AO2 T02340128
KHDE 211915Z AUTO 35018G26KT 10SM SCT050 24/13 A2996 RMK AO2 T02400132
KHDE 211855Z AUTO 35018G24KT 10SM SCT050 24/13 A2996 RMK AO2 T02360130
KHDE 211835Z AUTO 35017G25KT 10SM SCT050 24/13 A2996 RMK AO2 T02370130
KHDE 211815Z AUTO 35016G25KT 10SM SCT050 SCT060 24/13 A2996 RMK AO2 T02350134
KHDE 211755Z AUTO 33015G25KT 10SM BKN050 23/13 A2997 RMK AO2 T02310132 10233 20149
KHDE 211735Z AUTO 34015G24KT 10SM BKN050 23/13 A2997 RMK AO2 T02280133
KHDE 211715Z AUTO 33019G26KT 10SM SCT050 23/13 A2997 RMK AO2 T02250128
KHDE 211655Z AUTO 32017G25KT 10SM CLR 23/13 A2997 RMK AO2 T02250133
KHDE 211635Z AUTO 33014G26KT 10SM CLR 22/14 A2997 RMK AO2 T02210140
KHDE 211615Z AUTO 34012G22KT 10SM CLR 21/14 A2997 RMK AO2 T02090141
KHDE 211555Z AUTO 32010G18KT 10SM CLR 20/15 A2998 RMK AO2 T01990148
KHDE 211535Z AUTO 32012G19KT 10SM CLR 19/14 A2998 RMK AO2 T01910143
KHDE 211515Z AUTO 32010G20KT 10SM CLR 19/14 A2998 RMK AO2 T01850142
KHDE 211455Z AUTO 32009G15KT 10SM CLR 18/14 A2999 RMK AO2 T01800140
KHDE 211435Z AUTO 32011G19KT 10SM CLR 18/14 A2999 RMK AO2 T01800140
KHDE 211355Z AUTO 32011G16KT 10SM CLR 17/14 A2998 RMK AO2 T01650137
KHDE 211335Z AUTO 32011G16KT 10SM CLR 17/14 A2999 RMK AO2 T01650136
KHDE 211315Z AUTO 31012G17KT 10SM CLR 17/14 A2998 RMK AO2 T01710138
KHDE 211255Z AUTO 29011G15KT 10SM CLR 17/14 A2998 RMK AO2 T01670144
KHDE 211235Z AUTO 29010KT 10SM CLR 16/14 A2998 RMK AO2 T01600141
KHDE 211215Z AUTO 29009G15KT 10SM CLR 16/14 A2998 RMK AO2 T01550140
KHDE 211155Z AUTO 29009KT 10SM CLR 15/14 A2998 RMK AO2 T01480138 10157 20140
KHDE 211135Z AUTO 29009KT 10SM CLR 15/14 A2997 RMK AO2 T01450136
KHDE 211115Z AUTO 30007KT 10SM CLR 15/14 A2997 RMK AO2 T01450136
KHDE 211055Z AUTO 30007KT 10SM CLR 15/14 A2997 RMK AO2 T01450135